logo
Search for airport 
image banner adimage banner adimage banner ad
image banner ad

EICK - Cork

Located in Cork, Ireland

ICAO - EICK, IATA - ORK

Data provided by Airmate  

General information

Coordinates: N51°50'29" W8°29'28"
Elevation is 502 feet MSL.
Magnetic variation is -3° East
View others Airports in County Cork

Operational data

Special qualification required
Current time UTC:
Current local time:
Weather
METAR: EICK 191400Z 34009KT 300V010 9999 FEW016 BKN020 13/08 Q1024 NOSIG
TAF: TAF AMD EICK 191216Z 1912/2012 33013KT 9999 FEW012 BKN016 TEMPO 1912/1915 BKN012 BECMG 1922/1924 VRB03KT TEMPO 2000/2008 3000 BR PROB40 TEMPO 2000/2008 0500 FG BKN001
View NOTAMs / SUP AIP / TFR affecting this airport [VIEW]
Communications frequencies: [VIEW]

Runways:

RWY identifierQFULength (ft)Width (ft)SurfaceLDA (ft)
0763°4298148CONC+ASPH4298
25243°4298148CONC+ASPH4298
16160°6998148ASPH6998
34340°6998148ASPH6998

Airport contact information

Address: Cork Ireland

Other aviation service providers

Flight schools

Atlantic Flight Training Academy

Atlantic Flight Training Academy
info@afta.ie+353214888737

Skywest Aviation Ltd

Skywest Aviation Ltd
info@helicopters.ie+353214888056

Satellite view of EICK